createdAt,value
2023-01-17T00:02:06.599Z,0.23
2023-01-17T00:04:52.315Z,0.20
2023-01-17T00:07:39.260Z,0.23
2023-01-17T00:10:18.460Z,0.20
2023-01-17T00:13:02.586Z,0.27
2023-01-17T00:15:31.273Z,0.10
2023-01-17T00:17:58.127Z,0.20
2023-01-17T00:20:46.674Z,0.20
2023-01-17T00:24:02.694Z,0.20
2023-01-17T00:26:31.837Z,0.30
2023-01-17T00:28:58.525Z,0.23
2023-01-17T00:31:25.321Z,0.20
2023-01-17T00:33:51.986Z,0.30
2023-01-17T00:36:18.740Z,0.23
2023-01-17T00:38:45.424Z,0.10
2023-01-17T00:41:14.283Z,0.30
2023-01-17T00:43:59.856Z,0.20
2023-01-17T00:46:45.748Z,0.20
2023-01-17T00:49:31.129Z,0.40
2023-01-17T00:52:16.367Z,0.20
2023-01-17T00:55:01.782Z,0.20
2023-01-17T00:57:48.515Z,0.20
2023-01-17T01:00:35.802Z,0.20
2023-01-17T01:03:27.572Z,0.30
2023-01-17T01:06:12.950Z,0.33
2023-01-17T01:08:58.295Z,0.30
2023-01-17T01:11:43.537Z,0.20
2023-01-17T01:14:29.958Z,0.20
2023-01-17T01:17:15.169Z,0.20
2023-01-17T01:20:00.550Z,0.20
2023-01-17T01:22:45.804Z,0.20
2023-01-17T01:25:31.129Z,0.20
2023-01-17T01:28:35.052Z,0.10
2023-01-17T01:31:23.899Z,0.20
2023-01-17T01:33:52.070Z,0.10
2023-01-17T01:36:18.790Z,0.90
2023-01-17T01:38:46.058Z,0.20
2023-01-17T01:41:12.796Z,0.10
2023-01-17T01:43:48.476Z,0.10
2023-01-17T01:46:35.808Z,0.23
2023-01-17T01:49:19.020Z,0.30
2023-01-17T01:51:51.171Z,0.20
2023-01-17T01:54:47.427Z,0.20
2023-01-17T01:57:18.503Z,0.20
2023-01-17T01:59:53.381Z,0.20
2023-01-17T02:02:20.807Z,0.10
2023-01-17T02:04:48.658Z,0.20
2023-01-17T02:07:22.675Z,0.10
2023-01-17T02:09:50.239Z,0.20
2023-01-17T02:12:18.802Z,0.10
2023-01-17T02:14:45.591Z,0.30
2023-01-17T02:17:12.244Z,0.17
2023-01-17T02:19:38.942Z,0.40
2023-01-17T02:22:39.940Z,0.30
2023-01-17T02:25:54.464Z,0.30
2023-01-17T02:28:58.452Z,0.20
2023-01-17T02:31:31.829Z,0.17
2023-01-17T02:34:15.530Z,0.10
2023-01-17T02:36:50.068Z,0.10
2023-01-17T02:39:28.397Z,0.20
2023-01-17T02:42:02.790Z,0.30
2023-01-17T02:44:29.638Z,0.50
2023-01-17T02:46:58.135Z,0.20
2023-01-17T02:49:31.459Z,0.10
2023-01-17T02:52:07.841Z,0.20
2023-01-17T02:54:57.026Z,0.20
2023-01-17T02:58:04.597Z,0.27
2023-01-17T03:01:04.268Z,0.13
2023-01-17T03:03:37.718Z,0.60
2023-01-17T03:06:11.846Z,0.20
2023-01-17T03:08:41.373Z,0.27
2023-01-17T03:11:09.872Z,0.20
2023-01-17T03:13:37.299Z,0.20
2023-01-17T03:16:12.692Z,0.20
2023-01-17T03:18:39.721Z,0.17
2023-01-17T03:21:06.544Z,0.20
2023-01-17T03:23:33.317Z,0.20
2023-01-17T03:26:00.091Z,0.20
2023-01-17T03:28:26.924Z,0.20
2023-01-17T03:30:53.813Z,0.20
2023-01-17T03:33:20.671Z,0.20
2023-01-17T03:35:48.342Z,0.20
2023-01-17T03:38:15.613Z,0.30
2023-01-17T03:40:42.503Z,0.20
2023-01-17T03:43:09.267Z,0.50
2023-01-17T03:45:35.996Z,0.30
2023-01-17T03:48:02.879Z,0.23
2023-01-17T03:50:29.643Z,0.20
2023-01-17T03:52:56.487Z,0.30
2023-01-17T03:55:23.234Z,0.20
2023-01-17T03:57:50.024Z,0.27
2023-01-17T04:00:17.248Z,0.20
2023-01-17T04:02:44.075Z,0.20
2023-01-17T04:05:10.907Z,0.10
2023-01-17T04:07:37.631Z,0.13
2023-01-17T04:10:04.853Z,0.20
2023-01-17T04:12:31.615Z,0.10
2023-01-17T04:14:58.694Z,0.30
2023-01-17T04:17:25.607Z,0.20
2023-01-17T04:20:11.133Z,0.30
2023-01-17T04:22:37.924Z,0.20
2023-01-17T04:25:05.001Z,0.30
2023-01-17T04:27:31.794Z,0.20
2023-01-17T04:29:58.475Z,0.10
2023-01-17T04:32:25.531Z,0.30
2023-01-17T04:34:52.359Z,0.10
2023-01-17T04:37:19.097Z,0.10
2023-01-17T04:40:05.012Z,0.20
2023-01-17T04:42:31.879Z,0.20
2023-01-17T04:44:58.620Z,0.20
2023-01-17T04:47:25.367Z,0.10
2023-01-17T04:49:52.247Z,0.10
2023-01-17T04:52:20.582Z,0.20
2023-01-17T04:54:51.205Z,0.20
2023-01-17T04:57:18.745Z,0.20
2023-01-17T04:59:46.648Z,0.20
2023-01-17T05:02:14.142Z,0.10
2023-01-17T05:04:40.960Z,0.20
2023-01-17T05:07:08.085Z,0.10
2023-01-17T05:09:34.931Z,0.20
2023-01-17T05:12:20.308Z,0.20
2023-01-17T05:14:47.082Z,0.13
2023-01-17T05:17:13.953Z,0.20
2023-01-17T05:19:40.852Z,0.10
2023-01-17T05:22:15.356Z,0.20
2023-01-17T05:24:44.185Z,0.20
2023-01-17T05:27:12.787Z,0.10
2023-01-17T05:29:40.139Z,0.10
2023-01-17T05:32:07.680Z,0.10
2023-01-17T05:34:35.139Z,0.13
2023-01-17T05:37:02.206Z,0.13
2023-01-17T05:39:47.712Z,0.30
2023-01-17T05:42:14.485Z,0.20
2023-01-17T05:44:41.276Z,0.10
2023-01-17T05:47:08.089Z,0.20
2023-01-17T05:49:34.858Z,0.20
2023-01-17T05:52:02.199Z,0.10
2023-01-17T05:54:28.992Z,0.20
2023-01-17T05:56:55.766Z,0.10
2023-01-17T05:59:32.411Z,0.20
2023-01-17T06:02:03.096Z,0.20
2023-01-17T06:04:29.836Z,0.10
2023-01-17T06:06:56.600Z,0.20
2023-01-17T06:09:23.367Z,0.10
2023-01-17T06:11:50.116Z,0.10
2023-01-17T06:14:16.844Z,0.13
2023-01-17T06:16:43.583Z,0.10
2023-01-17T06:19:10.291Z,0.10
2023-01-17T06:21:37.016Z,0.20
2023-01-17T06:24:04.356Z,0.20
2023-01-17T06:26:31.231Z,0.17
2023-01-17T06:28:57.994Z,0.20
2023-01-17T06:31:24.774Z,0.30
2023-01-17T06:33:51.471Z,0.30
2023-01-17T06:36:18.250Z,0.20
2023-01-17T06:38:45.007Z,0.10
2023-01-17T06:41:11.798Z,0.20
2023-01-17T06:46:23.427Z,0.10
2023-01-17T06:48:50.405Z,0.23
2023-01-17T06:51:17.452Z,0.10
2023-01-17T06:54:02.659Z,0.20
2023-01-17T06:56:33.791Z,0.23
2023-01-17T06:59:00.641Z,0.20
2023-01-17T07:01:27.635Z,0.20
2023-01-17T07:03:54.834Z,0.20
2023-01-17T07:09:05.846Z,0.40
2023-01-17T07:11:32.700Z,0.20
2023-01-17T07:13:59.774Z,0.10
2023-01-17T07:16:26.543Z,0.20
2023-01-17T07:18:54.825Z,0.20
2023-01-17T07:21:21.943Z,0.30
2023-01-17T07:23:48.983Z,0.20
2023-01-17T07:26:17.383Z,0.20
2023-01-17T07:28:44.243Z,0.10
2023-01-17T07:31:11.178Z,0.90
2023-01-17T07:33:38.111Z,0.17
2023-01-17T07:36:09.353Z,0.10
2023-01-17T07:38:36.356Z,0.10
2023-01-17T07:41:03.520Z,0.10
2023-01-17T07:43:48.883Z,0.33
2023-01-17T07:46:15.717Z,0.20
2023-01-17T07:48:42.702Z,0.10
2023-01-17T07:51:10.235Z,0.10
2023-01-17T07:53:37.000Z,0.27
2023-01-17T07:56:06.379Z,0.80
2023-01-17T07:58:34.517Z,0.20
2023-01-17T08:01:20.099Z,0.10
2023-01-17T08:03:50.864Z,0.20
2023-01-17T08:09:04.967Z,0.20
2023-01-17T08:11:31.737Z,0.10
2023-01-17T08:13:59.548Z,0.10
2023-01-17T08:16:44.661Z,0.10
2023-01-17T08:19:11.516Z,0.20
2023-01-17T08:21:38.238Z,0.20
2023-01-17T08:24:05.300Z,0.20
2023-01-17T08:26:32.363Z,0.10
2023-01-17T08:29:00.975Z,0.20
2023-01-17T08:31:30.102Z,0.23
2023-01-17T08:33:57.449Z,0.20
2023-01-17T08:36:25.897Z,0.23
2023-01-17T08:38:53.789Z,0.20
2023-01-17T08:41:21.968Z,0.20
2023-01-17T08:43:50.376Z,0.10
2023-01-17T08:46:18.142Z,0.27
2023-01-17T08:48:45.420Z,0.20
2023-01-17T08:51:12.152Z,0.20
2023-01-17T08:53:39.110Z,0.30
2023-01-17T08:56:06.314Z,0.20
2023-01-17T08:58:35.005Z,0.30
2023-01-17T09:01:04.265Z,0.10
2023-01-17T09:03:32.208Z,0.20
2023-01-17T09:06:13.377Z,0.10
2023-01-17T09:08:40.728Z,0.20
2023-01-17T09:11:09.195Z,0.10
2023-01-17T09:13:36.457Z,0.30
2023-01-17T09:16:04.172Z,0.20
2023-01-17T09:18:32.591Z,0.20
2023-01-17T09:20:59.529Z,0.20
2023-01-17T09:23:28.002Z,0.20
2023-01-17T09:25:59.547Z,0.10
2023-01-17T09:28:27.830Z,0.20
2023-01-17T09:30:54.954Z,0.17
2023-01-17T09:33:23.274Z,0.13
2023-01-17T09:35:50.194Z,0.10
2023-01-17T09:38:17.272Z,0.30
2023-01-17T09:40:47.456Z,0.10
2023-01-17T09:43:23.385Z,0.10
2023-01-17T09:45:50.518Z,0.10
2023-01-17T09:48:25.260Z,0.20
2023-01-17T09:51:04.047Z,0.10
2023-01-17T09:53:37.596Z,0.10
2023-01-17T09:56:09.990Z,0.20
2023-01-17T09:58:58.053Z,0.30
2023-01-17T10:01:50.903Z,0.10
2023-01-17T10:04:18.397Z,0.30
2023-01-17T10:07:22.552Z,0.10
2023-01-17T10:10:16.456Z,0.43
2023-01-17T10:12:55.294Z,0.17
2023-01-17T10:15:28.086Z,0.10
2023-01-17T10:18:06.732Z,0.20
2023-01-17T10:20:50.833Z,0.10
2023-01-17T10:23:42.968Z,0.20
2023-01-17T10:26:22.362Z,0.20
2023-01-17T10:28:51.646Z,0.27
2023-01-17T10:31:29.949Z,0.10
2023-01-17T10:34:00.663Z,0.20
2023-01-17T10:36:34.512Z,0.20
2023-01-17T10:42:06.667Z,0.10
2023-01-17T10:45:04.966Z,0.10
2023-01-17T10:47:36.754Z,0.10
2023-01-17T10:50:11.619Z,0.10
2023-01-17T10:52:43.366Z,0.10
2023-01-17T10:55:28.565Z,0.20
2023-01-17T10:57:58.021Z,0.10
2023-01-17T11:00:39.937Z,0.10
2023-01-17T11:03:07.146Z,0.10
2023-01-17T11:05:34.418Z,0.20
2023-01-17T11:08:06.673Z,0.27
2023-01-17T11:10:49.834Z,0.17
2023-01-17T11:13:30.753Z,0.10
2023-01-17T11:16:27.606Z,0.20
2023-01-17T11:19:45.546Z,0.10
2023-01-17T11:22:15.264Z,0.20
2023-01-17T11:24:49.535Z,0.10
2023-01-17T11:27:32.016Z,0.10
2023-01-17T11:30:18.063Z,0.10
2023-01-17T11:32:59.763Z,0.10
2023-01-17T11:35:45.349Z,0.10
2023-01-17T11:38:18.868Z,0.10
2023-01-17T11:40:47.272Z,0.10
2023-01-17T11:43:27.802Z,0.10
2023-01-17T11:46:18.762Z,0.10
2023-01-17T11:49:03.954Z,0.10
2023-01-17T11:51:39.789Z,0.30
2023-01-17T11:54:30.150Z,0.10
2023-01-17T11:57:01.627Z,0.10
2023-01-17T11:59:33.563Z,0.10
2023-01-17T12:02:37.136Z,0.10
2023-01-17T12:05:15.331Z,0.30
2023-01-17T12:08:02.896Z,0.10
2023-01-17T12:10:36.292Z,0.20
2023-01-17T12:13:36.995Z,0.10
2023-01-17T12:16:54.907Z,0.10
2023-01-17T12:20:18.287Z,0.10
2023-01-17T12:23:06.111Z,0.10
2023-01-17T12:25:39.634Z,0.17
2023-01-17T12:28:34.242Z,1.60
2023-01-17T12:31:23.749Z,0.20
2023-01-17T12:34:35.991Z,0.10
2023-01-17T12:37:24.373Z,0.10
2023-01-17T12:40:02.800Z,0.10
2023-01-17T12:43:12.229Z,0.17
2023-01-17T12:45:43.884Z,0.10
2023-01-17T12:48:13.421Z,0.50
2023-01-17T12:51:04.452Z,0.10
2023-01-17T12:54:06.663Z,0.10
2023-01-17T12:56:59.028Z,0.30
2023-01-17T12:59:40.460Z,0.37
2023-01-17T13:02:38.540Z,0.20
2023-01-17T13:05:28.675Z,0.10
2023-01-17T13:07:59.866Z,0.20
2023-01-17T13:10:54.487Z,0.30
2023-01-17T13:13:26.423Z,0.30
2023-01-17T13:16:11.821Z,0.10
2023-01-17T13:18:45.499Z,0.60
2023-01-17T13:21:29.559Z,0.10
2023-01-17T13:23:59.352Z,0.20
2023-01-17T13:26:36.529Z,0.20
2023-01-17T13:29:19.637Z,0.10
2023-01-17T13:31:51.738Z,0.10
2023-01-17T13:34:33.742Z,0.20
2023-01-17T13:37:23.955Z,0.10
2023-01-17T13:40:12.051Z,0.10
2023-01-17T13:43:00.401Z,0.20
2023-01-17T13:45:31.225Z,0.10
2023-01-17T13:48:27.513Z,0.10
2023-01-17T13:51:04.822Z,0.10
2023-01-17T13:53:34.651Z,0.10
2023-01-17T13:56:19.740Z,0.10
2023-01-17T13:58:50.515Z,0.20
2023-01-17T14:01:23.348Z,0.13
2023-01-17T14:03:50.298Z,0.20
2023-01-17T14:06:38.463Z,0.10
2023-01-17T14:09:08.246Z,0.40
2023-01-17T14:11:57.002Z,0.10
2023-01-17T14:14:42.809Z,0.10
2023-01-17T14:17:28.251Z,0.10
2023-01-17T14:20:19.191Z,0.10
2023-01-17T14:22:53.900Z,0.10
2023-01-17T14:25:41.620Z,0.10
2023-01-17T14:28:22.618Z,0.10
2023-01-17T14:30:55.973Z,0.27
2023-01-17T14:33:34.923Z,0.20
2023-01-17T14:36:33.345Z,0.40
2023-01-17T14:41:44.502Z,1.33
2023-01-17T14:44:12.483Z,0.67
2023-01-17T14:46:39.299Z,0.63
2023-01-17T14:52:06.349Z,0.20
2023-01-17T14:54:33.492Z,0.37
2023-01-17T14:57:24.754Z,0.30
2023-01-17T14:59:51.485Z,0.50
2023-01-17T15:02:18.985Z,0.37
2023-01-17T15:04:54.669Z,0.40
2023-01-17T15:07:22.907Z,0.33
2023-01-17T15:09:50.003Z,0.80
2023-01-17T15:12:17.097Z,0.57
2023-01-17T15:14:46.579Z,1.10
2023-01-17T15:17:24.504Z,0.50
2023-01-17T15:19:57.179Z,0.30
2023-01-17T15:22:26.042Z,0.20
2023-01-17T15:24:53.694Z,0.10
2023-01-17T15:27:21.011Z,0.20
2023-01-17T15:29:48.490Z,0.20
2023-01-17T15:32:22.582Z,0.20
2023-01-17T15:34:51.465Z,0.40
2023-01-17T15:37:30.179Z,0.33
2023-01-17T15:40:07.729Z,0.10
2023-01-17T15:42:38.099Z,0.30
2023-01-17T15:45:10.894Z,0.20
2023-01-17T15:47:39.420Z,0.20
2023-01-17T15:50:26.301Z,0.10
2023-01-17T15:53:05.961Z,0.10
2023-01-17T15:55:35.589Z,0.40
2023-01-17T15:58:03.534Z,0.30
2023-01-17T16:00:49.001Z,0.20
2023-01-17T16:03:31.192Z,0.40
2023-01-17T16:06:00.612Z,0.33
2023-01-17T16:08:38.796Z,0.30
2023-01-17T16:11:07.374Z,0.50
2023-01-17T16:13:38.652Z,0.30
2023-01-17T16:16:29.593Z,0.30
2023-01-17T16:19:00.700Z,0.27
2023-01-17T16:21:30.007Z,0.30
2023-01-17T16:23:57.066Z,0.60
2023-01-17T16:26:24.406Z,0.40
2023-01-17T16:28:51.672Z,0.60
2023-01-17T16:31:18.552Z,0.50
2023-01-17T16:33:46.164Z,0.50
2023-01-17T16:36:15.188Z,0.57
2023-01-17T16:38:43.760Z,0.30
2023-01-17T16:41:10.858Z,0.20
2023-01-17T16:43:37.665Z,0.20
2023-01-17T16:46:04.580Z,0.30
2023-01-17T16:48:31.370Z,0.10
2023-01-17T16:50:59.364Z,0.30
2023-01-17T16:53:28.769Z,0.27
2023-01-17T16:55:58.605Z,0.23
2023-01-17T16:58:25.744Z,0.30
2023-01-17T17:00:52.705Z,0.30
2023-01-17T17:03:21.161Z,0.60
2023-01-17T17:05:59.732Z,0.30
2023-01-17T17:08:29.100Z,0.30
2023-01-17T17:11:08.714Z,0.50
2023-01-17T17:13:38.752Z,0.83
2023-01-17T17:16:10.910Z,0.70
2023-01-17T17:18:37.814Z,0.80
2023-01-17T17:21:04.820Z,0.60
2023-01-17T17:23:31.546Z,0.40
2023-01-17T17:25:58.313Z,0.50
2023-01-17T17:28:25.089Z,0.70
2023-01-17T17:31:01.610Z,0.30
2023-01-17T17:33:28.437Z,0.50
2023-01-17T17:35:55.165Z,0.40
2023-01-17T17:38:21.949Z,0.43
2023-01-17T17:40:48.720Z,0.30
2023-01-17T17:43:15.450Z,0.50
2023-01-17T17:45:42.289Z,1.00
2023-01-17T17:48:09.075Z,0.80
2023-01-17T17:50:35.823Z,1.03
2023-01-17T17:53:02.548Z,0.47
2023-01-17T17:55:29.441Z,0.53
2023-01-17T17:57:56.575Z,0.50
2023-01-17T18:00:23.434Z,0.47
2023-01-17T18:02:50.144Z,0.37
2023-01-17T18:05:35.395Z,0.50
2023-01-17T18:08:02.193Z,0.30
2023-01-17T18:10:29.006Z,0.37
2023-01-17T18:12:55.755Z,0.53
2023-01-17T18:15:40.890Z,0.70
2023-01-17T18:18:07.646Z,0.30
2023-01-17T18:20:34.406Z,0.30
2023-01-17T18:23:01.228Z,0.40
2023-01-17T18:25:27.929Z,0.20
2023-01-17T18:27:55.041Z,0.40
2023-01-17T18:30:21.951Z,0.40
2023-01-17T18:32:49.915Z,0.53
2023-01-17T18:35:16.805Z,0.47
2023-01-17T18:37:43.612Z,0.40
2023-01-17T18:40:11.035Z,0.33
2023-01-17T18:42:39.009Z,0.30
2023-01-17T18:45:06.415Z,0.67
2023-01-17T18:47:33.334Z,0.20
2023-01-17T18:50:00.079Z,0.23
2023-01-17T18:52:26.893Z,0.30
2023-01-17T18:54:53.755Z,1.90
2023-01-17T18:57:20.510Z,0.50
2023-01-17T18:59:47.378Z,0.30
2023-01-17T19:02:14.568Z,0.50
2023-01-17T19:04:41.343Z,0.20
2023-01-17T19:07:08.270Z,0.20
2023-01-17T19:09:35.172Z,0.20
2023-01-17T19:12:02.035Z,0.30
2023-01-17T19:14:28.796Z,0.27
2023-01-17T19:16:57.224Z,0.40
2023-01-17T19:20:01.005Z,0.50
2023-01-17T19:22:27.782Z,0.30
2023-01-17T19:24:54.954Z,0.30
2023-01-17T19:27:21.828Z,0.20
2023-01-17T19:29:49.106Z,0.40
2023-01-17T19:32:15.901Z,0.43
2023-01-17T19:34:42.678Z,0.20
2023-01-17T19:37:09.416Z,0.13
2023-01-17T19:39:36.290Z,0.13
2023-01-17T19:42:03.083Z,0.23
2023-01-17T19:44:29.985Z,0.20
2023-01-17T19:46:56.860Z,0.30
2023-01-17T19:49:42.073Z,0.20
2023-01-17T19:52:08.907Z,0.20
2023-01-17T19:54:35.721Z,0.20
2023-01-17T19:57:02.509Z,0.20
2023-01-17T19:59:29.261Z,0.40
2023-01-17T20:02:32.938Z,0.30
2023-01-17T20:04:59.840Z,0.20
2023-01-17T20:07:27.482Z,0.23
2023-01-17T20:09:54.280Z,0.20
2023-01-17T20:12:21.043Z,0.43
2023-01-17T20:14:49.867Z,0.30
2023-01-17T20:17:16.689Z,0.10
2023-01-17T20:19:44.391Z,0.20
2023-01-17T20:22:11.107Z,0.30
2023-01-17T20:24:38.183Z,0.30
2023-01-17T20:27:26.643Z,0.27
2023-01-17T20:29:53.389Z,0.27
2023-01-17T20:32:20.092Z,0.20
2023-01-17T20:34:46.996Z,0.20
2023-01-17T20:37:13.787Z,0.20
2023-01-17T20:39:41.364Z,0.10
2023-01-17T20:42:08.123Z,0.20
2023-01-17T20:44:34.942Z,0.20
2023-01-17T20:47:01.803Z,0.20
2023-01-17T20:49:28.673Z,0.30
2023-01-17T20:51:55.547Z,0.30
2023-01-17T20:54:23.532Z,0.20
2023-01-17T20:56:50.630Z,0.30
2023-01-17T20:59:20.548Z,0.50
2023-01-17T21:01:48.103Z,0.27
2023-01-17T21:04:16.528Z,0.53
2023-01-17T21:06:44.063Z,0.97
2023-01-17T21:09:13.361Z,0.70
2023-01-17T21:11:40.198Z,0.90
2023-01-17T21:14:07.029Z,1.27
2023-01-17T21:16:35.058Z,0.73
2023-01-17T21:19:02.518Z,0.50
2023-01-17T21:21:48.343Z,0.30
2023-01-17T21:24:33.362Z,0.30
2023-01-17T21:27:00.704Z,0.60
2023-01-17T21:29:29.245Z,0.40
2023-01-17T21:31:56.405Z,0.53
2023-01-17T21:34:25.469Z,0.63
2023-01-17T21:36:53.917Z,0.50
2023-01-17T21:39:20.809Z,0.80
2023-01-17T21:41:50.838Z,0.50
2023-01-17T21:44:20.412Z,1.23
2023-01-17T21:46:48.418Z,0.77
2023-01-17T21:49:15.436Z,0.60
2023-01-17T21:51:55.308Z,0.60
2023-01-17T21:54:45.632Z,0.57
2023-01-17T21:57:36.397Z,0.60
2023-01-17T22:00:21.701Z,0.30
2023-01-17T22:02:48.719Z,0.50
2023-01-17T22:05:16.893Z,0.57
2023-01-17T22:08:03.310Z,0.50
2023-01-17T22:10:30.289Z,0.30
2023-01-17T22:13:16.851Z,0.33
2023-01-17T22:15:44.345Z,0.40
2023-01-17T22:18:12.495Z,0.67
2023-01-17T22:20:41.340Z,0.40
2023-01-17T22:23:09.539Z,0.67
2023-01-17T22:25:36.820Z,0.33
2023-01-17T22:28:04.162Z,0.60
2023-01-17T22:30:30.971Z,0.40
2023-01-17T22:32:58.482Z,0.80
2023-01-17T22:35:25.812Z,0.90
2023-01-17T22:37:53.402Z,0.97
2023-01-17T22:40:20.448Z,1.10
2023-01-17T22:42:47.256Z,1.43
2023-01-17T22:45:14.431Z,1.10
2023-01-17T22:47:41.171Z,1.67
2023-01-17T22:50:09.056Z,0.83
2023-01-17T22:52:35.885Z,0.70
2023-01-17T22:55:02.656Z,1.03
2023-01-17T22:57:29.396Z,1.03
2023-01-17T22:59:56.163Z,1.10
2023-01-17T23:02:23.109Z,0.80
2023-01-17T23:04:49.998Z,1.00
2023-01-17T23:07:35.240Z,0.80
2023-01-17T23:10:01.972Z,1.17
2023-01-17T23:12:28.700Z,0.83
2023-01-17T23:15:14.214Z,1.67
2023-01-17T23:17:59.455Z,1.20
2023-01-17T23:20:26.218Z,2.83
2023-01-17T23:22:52.927Z,1.40
2023-01-17T23:25:20.279Z,2.13
2023-01-17T23:28:06.081Z,1.23
2023-01-17T23:30:35.522Z,1.00
2023-01-17T23:33:08.674Z,1.03
2023-01-17T23:35:44.045Z,1.03
2023-01-17T23:38:29.183Z,0.90
2023-01-17T23:41:27.853Z,1.10
2023-01-17T23:43:57.708Z,0.77
2023-01-17T23:46:26.593Z,0.83
2023-01-17T23:48:55.007Z,1.60
2023-01-17T23:51:22.349Z,1.70
2023-01-17T23:53:50.989Z,0.97
2023-01-17T23:56:23.460Z,1.20
